Time;durP1;ratioP1;P1;durP2;ratioP2;P2;SDS_P1;SDS_P2;PMS_P1;PMS_P2;Temp;Humidity;BMP_temperature;BMP_pressure;BME280_temperature;BME280_humidity;BME280_pressure;Samples;Min_cycle;Max_cycle;Signal;HPM_P1;HPM_P2
2023/03/28 00:02:23;;;;;;;4.72;1.75;;;5.80;59.50;;;;;;5025535;28;20042;-47
2023/03/28 00:04:51;;;;;;;5.95;1.80;;;5.70;59.60;;;;;;5022823;28;20413;-49
2023/03/28 00:07:21;;;;;;;3.28;1.77;;;5.70;59.60;;;;;;5028600;28;20065;-50
2023/03/28 00:09:55;;;;;;;4.57;1.48;;;5.70;60.30;;;;;;5005750;28;20541;-44
2023/03/28 00:12:29;;;;;;;7.28;2.35;;;5.70;59.90;;;;;;5028146;28;20084;-48
2023/03/28 00:14:59;;;;;;;4.00;1.70;;;5.60;59.80;;;;;;5029776;28;20046;-47
2023/03/28 00:17:30;;;;;;;4.97;1.88;;;5.60;59.90;;;;;;5030232;28;20045;-50
2023/03/28 00:20:03;;;;;;;5.72;1.48;;;5.60;60.00;;;;;;5027352;28;20509;-44
2023/03/28 00:22:36;;;;;;;3.10;1.60;;;5.60;60.00;;;;;;5028396;28;20060;-47
2023/03/28 00:25:06;;;;;;;4.30;1.25;;;5.60;60.10;;;;;;5031942;28;20045;-48
2023/03/28 00:27:35;;;;;;;5.53;1.85;;;5.60;60.20;;;;;;5022436;28;20462;-49
2023/03/28 00:30:11;;;;;;;4.70;1.38;;;5.60;60.20;;;;;;5030390;28;20045;-45
2023/03/28 00:32:41;;;;;;;4.05;1.60;;;5.60;60.20;;;;;;5015246;28;20168;-48
2023/03/28 00:35:08;;;;;;;5.03;1.83;;;5.60;60.10;;;;;;5025373;28;20141;-45
2023/03/28 00:37:35;;;;;;;6.03;1.73;;;5.50;60.10;;;;;;5030705;28;20386;-49
2023/03/28 00:40:06;;;;;;;5.13;1.60;;;5.60;60.20;;;;;;5032435;28;20040;-47
2023/03/28 00:42:32;;;;;;;4.47;1.40;;;5.50;60.20;;;;;;5014104;28;20050;-46
2023/03/28 00:44:59;;;;;;;6.60;1.88;;;5.50;60.20;;;;;;5021591;28;20134;-46
2023/03/28 00:47:53;;;;;;;3.50;1.60;;;5.50;60.30;;;;;;5030860;28;20144;-47
2023/03/28 00:50:29;;;;;;;3.63;1.60;;;5.50;60.90;;;;;;5012992;28;20120;-46
2023/03/28 00:53:09;;;;;;;4.43;2.05;;;5.50;60.40;;;;;;5029468;28;20049;-46
2023/03/28 00:55:50;;;;;;;6.70;2.03;;;5.50;60.50;;;;;;5031667;28;20045;-49
2023/03/28 00:58:24;;;;;;;7.35;1.90;;;5.40;60.80;;;;;;5014171;28;20464;-49
2023/03/28 01:00:56;;;;;;;4.65;1.90;;;5.40;60.70;;;;;;5029051;28;20124;-45
2023/03/28 01:03:33;;;;;;;4.45;1.95;;;5.40;60.60;;;;;;5029799;28;20052;-47
2023/03/28 01:06:04;;;;;;;3.95;1.90;;;5.40;60.50;;;;;;5029785;28;20413;-46
2023/03/28 01:08:42;;;;;;;2.97;2.10;;;5.30;60.50;;;;;;5026934;28;20854;-47
2023/03/28 01:11:11;;;;;;;3.78;1.85;;;5.40;60.50;;;;;;5028159;28;20054;-44
2023/03/28 01:13:48;;;;;;;2.75;1.90;;;5.30;60.50;;;;;;5031469;28;20037;-48
2023/03/28 01:16:29;;;;;;;4.68;2.45;;;5.30;60.50;;;;;;5014922;28;20597;-47
2023/03/28 01:19:05;;;;;;;6.78;1.95;;;5.30;60.60;;;;;;5021299;28;20050;-46
2023/03/28 01:21:47;;;;;;;;;;;5.20;60.80;;;;;;5022513;28;20103;-48
2023/03/28 01:24:49;;;;;;;4.80;1.70;;;5.20;61.20;;;;;;5020380;28;20394;-49
2023/03/28 01:27:45;;;;;;;3.22;1.58;;;5.20;60.90;;;;;;5029073;28;20064;-47
2023/03/28 01:30:45;;;;;;;9.20;2.20;;;5.20;60.60;;;;;;5025942;28;20510;-46
2023/03/28 01:33:43;;;;;;;4.57;1.80;;;5.10;61.30;;;;;;4980888;28;20045;-45
2023/03/28 01:36:51;;;;;;;4.45;1.98;;;5.10;61.20;;;;;;5007148;28;20037;-46
2023/03/28 01:39:51;;;;;;;6.75;3.35;;;5.00;61.30;;;;;;5027442;28;20124;-47
2023/03/28 01:42:28;;;;;;;4.70;2.50;;;5.00;61.20;;;;;;5013940;28;20498;-45
2023/03/28 01:45:05;;;;;;;2.80;1.98;;;5.00;61.20;;;;;;5010474;28;20060;-47
2023/03/28 01:47:39;;;;;;;4.50;2.60;;;5.00;61.30;;;;;;5023354;28;20033;-46
2023/03/28 01:50:12;;;;;;;;;;;5.00;61.30;;;;;;5021953;28;20042;-46
2023/03/28 01:52:54;;;;;;;8.50;2.93;;;5.00;61.90;;;;;;5029734;28;19921;-46
2023/03/28 01:55:34;;;;;;;6.53;2.35;;;4.90;61.20;;;;;;5013674;28;20049;-47
2023/03/28 01:58:41;;;;;;;4.88;2.03;;;4.90;61.20;;;;;;5011323;28;20045;-45
2023/03/28 02:01:26;;;;;;;3.50;2.33;;;4.90;61.60;;;;;;5013249;28;20046;-46
2023/03/28 02:04:03;;;;;;;3.83;2.25;;;4.90;61.40;;;;;;5012480;28;20080;-45
2023/03/28 02:06:37;;;;;;;11.20;2.63;;;4.90;61.50;;;;;;5006465;28;20034;-45
2023/03/28 02:09:13;;;;;;;4.95;2.65;;;4.80;61.40;;;;;;5021116;28;20037;-46
2023/03/28 02:12:04;;;;;;;6.53;2.80;;;4.80;61.40;;;;;;4997345;28;20041;-45
2023/03/28 02:14:50;;;;;;;4.55;2.38;;;4.90;61.60;;;;;;5013185;28;20057;-47
2023/03/28 02:17:49;;;;;;;8.82;3.40;;;4.80;61.60;;;;;;5007407;28;20076;-48
2023/03/28 02:20:52;;;;;;;5.68;2.42;;;4.80;61.80;;;;;;4996791;28;20160;-46
2023/03/28 02:23:53;;;;;;;3.72;2.53;;;4.80;61.80;;;;;;4983582;28;20061;-47
2023/03/28 02:26:29;;;;;;;13.68;3.58;;;4.80;61.70;;;;;;5030422;28;20784;-44
2023/03/28 02:29:29;;;;;;;4.90;2.70;;;4.80;61.60;;;;;;5023745;28;20445;-45
2023/03/28 02:32:20;;;;;;;8.10;2.58;;;4.80;61.70;;;;;;5020506;28;20054;-48
2023/03/28 02:34:50;;;;;;;7.72;3.38;;;4.70;61.70;;;;;;5011317;28;20054;-48
2023/03/28 02:37:49;;;;;;;8.20;2.53;;;4.70;61.90;;;;;;5002121;28;20136;-46
2023/03/28 02:40:34;;;;;;;11.05;2.80;;;4.70;62.60;;;;;;5026226;28;20049;-47
2023/03/28 02:43:30;;;;;;;6.65;2.72;;;4.70;62.20;;;;;;5012144;28;20404;-46
2023/03/28 02:46:07;;;;;;;6.10;3.15;;;4.70;62.70;;;;;;5026937;28;20053;-44
2023/03/28 02:49:09;;;;;;;4.13;2.28;;;4.70;62.40;;;;;;5004922;28;20045;-47
2023/03/28 02:51:58;;;;;;;5.95;2.22;;;4.70;63.00;;;;;;5025712;28;20065;-46
2023/03/28 02:54:42;;;;;;;4.88;3.00;;;4.70;62.60;;;;;;5004491;28;20108;-48
2023/03/28 02:57:49;;;;;;;6.05;2.72;;;4.70;62.80;;;;;;4980599;28;20058;-45
2023/03/28 03:00:21;;;;;;;7.35;2.70;;;4.70;62.70;;;;;;5023483;28;20557;-46
2023/03/28 03:02:50;;;;;;;5.80;2.63;;;4.60;62.50;;;;;;5023328;28;20056;-47
2023/03/28 03:05:20;;;;;;;6.70;3.08;;;4.60;62.60;;;;;;5027399;28;20060;-48
2023/03/28 03:07:50;;;;;;;7.57;2.90;;;4.70;62.80;;;;;;4998295;28;20105;-49
2023/03/28 03:10:24;;;;;;;4.78;2.97;;;4.60;62.80;;;;;;5024723;28;20044;-49
2023/03/28 03:12:51;;;;;;;5.20;3.17;;;4.60;62.70;;;;;;5029899;28;20577;-46
2023/03/28 03:15:20;;;;;;;7.05;3.00;;;4.60;62.80;;;;;;5011218;28;20056;-49
2023/03/28 03:17:55;;;;;;;6.68;3.33;;;4.60;63.00;;;;;;5027462;28;20045;-49
2023/03/28 03:20:25;;;;;;;4.45;3.08;;;4.60;62.90;;;;;;5000151;28;20502;-46
2023/03/28 03:22:57;;;;;;;9.73;3.10;;;4.60;62.90;;;;;;5021471;28;20045;-46
2023/03/28 03:25:25;;;;;;;4.80;3.05;;;4.60;62.90;;;;;;5011517;28;20456;-46
2023/03/28 03:28:04;;;;;;;6.47;3.70;;;4.60;63.00;;;;;;5010567;28;20107;-49
2023/03/28 03:30:39;;;;;;;8.02;3.38;;;4.60;63.00;;;;;;5024696;28;20045;-44
2023/03/28 03:33:10;;;;;;;7.70;3.70;;;4.60;62.90;;;;;;5027442;28;20041;-46
2023/03/28 03:35:44;;;;;;;9.73;3.42;;;4.60;63.00;;;;;;5013151;28;20069;-46
2023/03/28 03:38:12;;;;;;;6.07;3.60;;;4.60;63.00;;;;;;5012646;28;20049;-46
2023/03/28 03:40:42;;;;;;;7.15;3.45;;;4.60;63.10;;;;;;5010391;28;20057;-45
2023/03/28 03:43:12;;;;;;;8.60;3.13;;;4.50;63.10;;;;;;5011251;28;20045;-44
2023/03/28 03:45:44;;;;;;;7.07;3.25;;;4.50;63.10;;;;;;5020479;28;20049;-46
2023/03/28 03:48:14;;;;;;;5.85;3.35;;;4.50;63.20;;;;;;5009359;28;20592;-46
2023/03/28 03:50:41;;;;;;;7.85;3.65;;;4.50;63.20;;;;;;5021074;28;20047;-48
2023/03/28 03:53:14;;;;;;;8.20;3.55;;;4.50;63.20;;;;;;5016887;28;20503;-46
2023/03/28 03:56:05;;;;;;;4.60;3.35;;;4.50;63.30;;;;;;5024996;28;20045;-46
2023/03/28 03:58:52;;;;;;;7.53;3.78;;;4.50;63.30;;;;;;5000892;28;20538;-47
2023/03/28 04:01:24;;;;;;;8.70;3.85;;;4.50;63.20;;;;;;5018153;28;20041;-45
2023/03/28 04:03:52;;;;;;;7.53;3.90;;;4.50;63.20;;;;;;5015994;28;20053;-45
2023/03/28 04:06:28;;;;;;;9.15;4.43;;;4.50;63.30;;;;;;5018263;28;20048;-46
2023/03/28 04:08:59;;;;;;;6.53;3.63;;;4.50;63.30;;;;;;5020673;28;20052;-45
2023/03/28 04:11:45;;;;;;;8.48;3.63;;;4.50;63.50;;;;;;5001087;28;20107;-49
2023/03/28 04:14:15;;;;;;;5.93;3.40;;;4.40;63.40;;;;;;5028362;28;20049;-46
2023/03/28 04:16:43;;;;;;;7.20;3.60;;;4.40;63.40;;;;;;5003422;28;20516;-44
2023/03/28 04:19:16;;;;;;;10.30;5.18;;;4.50;63.60;;;;;;5025826;28;20172;-47
2023/03/28 04:21:51;;;;;;;7.13;3.85;;;4.40;63.60;;;;;;5018345;28;20131;-48
2023/03/28 04:24:23;;;;;;;13.48;4.45;;;4.40;63.70;;;;;;5012180;28;20505;-46
2023/03/28 04:27:08;;;;;;;5.55;3.60;;;4.40;63.70;;;;;;5019206;28;20045;-46
2023/03/28 04:29:35;;;;;;;9.75;4.78;;;4.40;63.70;;;;;;5024241;28;20045;-49
2023/03/28 04:32:23;;;;;;;11.98;4.43;;;4.40;63.70;;;;;;5005034;28;20510;-46
2023/03/28 04:35:10;;;;;;;7.70;4.10;;;4.40;63.70;;;;;;5014243;28;20045;-44
2023/03/28 04:37:37;;;;;;;10.18;5.07;;;4.40;63.70;;;;;;5025661;23;20179;-45
2023/03/28 04:40:14;;;;;;;7.05;4.03;;;4.40;63.80;;;;;;5025244;28;20037;-43
2023/03/28 04:42:46;;;;;;;8.57;4.40;;;4.40;63.90;;;;;;5021155;28;20045;-45
2023/03/28 04:45:25;;;;;;;7.10;4.10;;;4.40;63.90;;;;;;5027316;28;20037;-43
2023/03/28 04:47:56;;;;;;;10.73;5.83;;;4.40;63.90;;;;;;5022926;28;20052;-46
2023/03/28 04:50:26;;;;;;;7.30;4.50;;;4.40;64.00;;;;;;5028730;28;20417;-45
2023/03/28 04:52:56;;;;;;;12.23;5.60;;;4.30;63.90;;;;;;5027586;28;20613;-42
2023/03/28 04:55:28;;;;;;;7.97;4.93;;;4.30;64.10;;;;;;5025641;28;20041;-43
2023/03/28 04:57:55;;;;;;;6.72;4.72;;;4.30;64.10;;;;;;5030179;28;20053;-47
2023/03/28 05:00:24;;;;;;;9.23;5.55;;;4.30;64.10;;;;;;5031716;28;20115;-42
2023/03/28 05:03:20;;;;;;;9.90;5.95;;;4.30;64.10;;;;;;5043043;28;20063;-43
2023/03/28 05:05:58;;;;;;;11.32;5.93;;;4.30;64.20;;;;;;5026107;28;20602;-43
2023/03/28 05:08:31;;;;;;;8.32;5.03;;;4.30;64.10;;;;;;5039050;28;20065;-42
2023/03/28 05:11:06;;;;;;;10.80;5.78;;;4.30;64.20;;;;;;5023986;28;20045;-42
2023/03/28 05:13:38;;;;;;;7.93;4.85;;;4.30;64.50;;;;;;5026555;28;20580;-42
2023/03/28 05:16:16;;;;;;;7.95;5.72;;;4.30;64.20;;;;;;5018675;28;20604;-42
2023/03/28 05:19:02;;;;;;;8.60;5.03;;;4.30;64.20;;;;;;5043048;28;20523;-43
2023/03/28 05:22:03;;;;;;;6.95;4.53;;;4.30;64.30;;;;;;5016813;28;20573;-42
2023/03/28 05:24:33;;;;;;;9.63;4.57;;;4.30;64.30;;;;;;5021495;28;20042;-45
2023/03/28 05:27:12;;;;;;;12.63;4.70;;;4.30;64.30;;;;;;5025168;28;20045;-41
2023/03/28 05:29:46;;;;;;;11.52;4.90;;;4.30;64.30;;;;;;5019865;28;20140;-42
2023/03/28 05:32:16;;;;;;;7.65;4.85;;;4.30;64.40;;;;;;5032270;28;20120;-41
2023/03/28 05:34:44;;;;;;;10.55;5.53;;;4.30;64.60;;;;;;5036711;28;20053;-43
2023/03/28 05:37:15;;;;;;;15.80;5.90;;;4.30;64.60;;;;;;5036848;28;20113;-43
2023/03/28 05:39:53;;;;;;;14.20;6.25;;;4.30;64.60;;;;;;5022183;28;20076;-42
2023/03/28 05:42:23;;;;;;;10.85;5.22;;;4.30;64.70;;;;;;5038607;28;20441;-42
2023/03/28 05:44:50;;;;;;;11.48;5.18;;;4.30;64.70;;;;;;5012932;28;20091;-41
2023/03/28 05:47:20;;;;;;;13.60;6.00;;;4.30;64.80;;;;;;5050008;28;20053;-42
2023/03/28 05:49:51;;;;;;;11.20;6.30;;;4.30;64.80;;;;;;5017573;28;20069;-42
2023/03/28 05:52:24;;;;;;;14.95;6.53;;;4.30;64.80;;;;;;5027308;28;20518;-42
2023/03/28 05:54:51;;;;;;;12.70;6.65;;;4.30;64.90;;;;;;5025897;28;20564;-43
2023/03/28 05:57:20;;;;;;;15.18;6.70;;;4.30;64.90;;;;;;5031457;28;20482;-44
2023/03/28 05:59:47;;;;;;;10.90;6.07;;;4.30;64.90;;;;;;5030887;28;20048;-45
2023/03/28 06:02:23;;;;;;;9.48;5.32;;;4.40;64.90;;;;;;5026191;28;20719;-44
2023/03/28 06:04:55;;;;;;;13.98;5.78;;;4.40;65.10;;;;;;5029453;28;20049;-42
2023/03/28 06:07:22;;;;;;;7.57;5.28;;;4.40;65.00;;;;;;5029688;28;20128;-42
2023/03/28 06:10:16;;;;;;;10.15;5.13;;;4.40;65.00;;;;;;5028993;28;20417;-43
2023/03/28 06:12:55;;;;;;;9.18;5.50;;;4.50;65.20;;;;;;5028622;28;20513;-42
2023/03/28 06:15:30;;;;;;;9.35;4.63;;;4.50;65.00;;;;;;5025011;28;20052;-42
2023/03/28 06:17:56;;;;;;;7.15;4.53;;;4.50;65.00;;;;;;5029074;28;20045;-43
2023/03/28 06:20:23;;;;;;;6.97;4.18;;;4.50;65.10;;;;;;5028974;28;20137;-43
2023/03/28 06:22:53;;;;;;;7.88;4.78;;;4.60;65.10;;;;;;5029796;28;20052;-43
2023/03/28 06:25:33;;;;;;;6.97;4.53;;;4.60;65.10;;;;;;5030904;28;20041;-44
2023/03/28 06:28:05;;;;;;;8.07;4.25;;;4.60;65.30;;;;;;5024602;28;20049;-42
2023/03/28 06:30:49;;;;;;;9.10;4.90;;;4.60;65.10;;;;;;5031361;28;20037;-44
2023/03/28 06:33:22;;;;;;;;;;;4.70;65.30;;;;;;5049497;28;20532;-44
2023/03/28 06:35:49;;;;;;;5.80;3.85;;;4.80;65.80;;;;;;5031197;28;19925;-43
2023/03/28 06:38:15;;;;;;;8.13;4.30;;;4.80;64.70;;;;;;5039683;28;20114;-42
2023/03/28 06:40:48;;;;;;;9.05;4.60;;;4.80;64.80;;;;;;5032474;28;20464;-43
2023/03/28 06:43:20;;;;;;;;;;;4.80;64.90;;;;;;5031258;28;20044;-43
2023/03/28 06:46:06;;;;;;;11.57;4.53;;;4.90;65.70;;;;;;5012589;28;19932;-44
2023/03/28 06:48:36;;;;;;;7.72;4.22;;;4.90;64.60;;;;;;5025538;28;20095;-45
2023/03/28 06:51:40;;;;;;;8.55;4.95;;;5.00;64.60;;;;;;5040162;28;20270;-44
2023/03/28 06:54:07;;;;;;;7.82;4.40;;;5.00;64.70;;;;;;5019208;28;20498;-42
2023/03/28 06:56:33;;;;;;;7.15;4.53;;;5.10;64.80;;;;;;5036292;28;20045;-43
2023/03/28 06:59:00;;;;;;;8.23;3.95;;;5.10;64.90;;;;;;5019525;28;20504;-43
2023/03/28 07:01:31;;;;;;;11.77;4.28;;;5.20;64.90;;;;;;5012323;28;20140;-44
2023/03/28 07:04:09;;;;;;;7.28;4.28;;;5.20;64.90;;;;;;5012456;28;20049;-42
2023/03/28 07:06:41;;;;;;;;;;;5.30;65.00;;;;;;5023059;28;20049;-43
2023/03/28 07:09:08;;;;;;;10.18;4.18;;;5.40;65.60;;;;;;5028909;28;20452;-44
2023/03/28 07:11:42;;;;;;;7.70;3.92;;;5.50;64.60;;;;;;5021684;28;20052;-46
2023/03/28 07:14:12;;;;;;;7.57;4.55;;;5.50;64.60;;;;;;5012479;28;20037;-42
2023/03/28 07:16:39;;;;;;;8.07;4.85;;;5.60;64.60;;;;;;5027880;28;20053;-47
2023/03/28 07:19:09;;;;;;;8.32;4.15;;;5.60;64.60;;;;;;5023754;28;20068;-43
2023/03/28 07:21:40;;;;;;;8.25;3.63;;;5.70;64.60;;;;;;5016663;28;20044;-43
2023/03/28 07:24:07;;;;;;;11.65;4.28;;;5.70;64.50;;;;;;5047760;28;20041;-43
2023/03/28 07:26:48;;;;;;;9.00;4.10;;;5.80;64.60;;;;;;5030201;28;20476;-46
2023/03/28 07:29:17;;;;;;;9.63;4.32;;;5.80;64.40;;;;;;5047473;28;20037;-45
2023/03/28 07:31:45;;;;;;;10.10;4.32;;;5.90;64.30;;;;;;5018010;28;20653;-44
2023/03/28 07:34:17;;;;;;;9.75;4.72;;;6.00;64.30;;;;;;5011663;28;20050;-46
2023/03/28 07:36:45;;;;;;;;;;;6.00;64.30;;;;;;5023250;28;20515;-44
2023/03/28 07:39:21;;;;;;;6.90;3.92;;;6.10;64.70;;;;;;5026258;28;19971;-42
2023/03/28 07:41:51;;;;;;;10.63;4.57;;;6.20;63.90;;;;;;5027251;28;20139;-48
2023/03/28 07:44:20;;;;;;;6.78;4.10;;;6.30;63.90;;;;;;5022256;28;20140;-47
2023/03/28 07:46:46;;;;;;;8.10;3.90;;;6.30;63.80;;;;;;5036058;28;20050;-44
2023/03/28 07:49:20;;;;;;;8.98;4.45;;;6.40;64.40;;;;;;5023853;28;20068;-43
2023/03/28 07:51:47;;;;;;;7.78;3.75;;;6.40;63.70;;;;;;5020069;28;20513;-45
2023/03/28 07:54:17;;;;;;;8.23;3.67;;;6.50;63.70;;;;;;5021505;28;20041;-44
2023/03/28 07:56:46;;;;;;;;;;;6.60;63.60;;;;;;5021939;28;20060;-45
2023/03/28 07:59:34;;;;;;;6.75;4.03;;;6.70;63.90;;;;;;5044561;28;19921;-44
2023/03/28 08:02:06;;;;;;;7.65;3.55;;;6.70;63.20;;;;;;5020022;28;20524;-46
2023/03/28 08:04:37;;;;;;;5.60;4.05;;;6.70;63.00;;;;;;5030102;28;20048;-43
2023/03/28 08:07:08;;;;;;;5.07;3.63;;;6.80;62.90;;;;;;5023979;28;20148;-44
2023/03/28 08:09:37;;;;;;;7.80;3.08;;;6.80;62.90;;;;;;5048349;28;20037;-44
2023/03/28 08:12:32;;;;;;;8.93;3.70;;;6.90;62.70;;;;;;5022797;28;20418;-44
2023/03/28 08:15:01;;;;;;;7.82;4.35;;;6.90;62.40;;;;;;5035327;28;20084;-44
2023/03/28 08:17:28;;;;;;;5.18;3.10;;;7.00;62.60;;;;;;5029373;28;20048;-43
2023/03/28 08:19:58;;;;;;;7.93;3.38;;;7.00;62.60;;;;;;5028078;28;20798;-42
2023/03/28 08:22:38;;;;;;;4.53;3.22;;;7.10;62.80;;;;;;5026306;28;20049;-43
2023/03/28 08:25:43;;;;;;;5.10;2.80;;;7.20;62.70;;;;;;4993779;28;20067;-46
2023/03/28 08:28:12;;;;;;;9.63;3.45;;;7.20;62.50;;;;;;5026231;28;20041;-42
2023/03/28 08:30:39;;;;;;;8.82;3.50;;;7.30;62.30;;;;;;5047386;28;20049;-44
2023/03/28 08:33:09;;;;;;;5.85;2.85;;;7.40;62.30;;;;;;5030339;28;20064;-45
2023/03/28 08:35:40;;;;;;;9.48;2.85;;;7.50;62.30;;;;;;5028845;28;20528;-43
2023/03/28 08:38:17;;;;;;;5.32;2.25;;;7.60;62.10;;;;;;5031439;28;20589;-45
2023/03/28 08:41:10;;;;;;;6.25;3.13;;;7.70;62.00;;;;;;5030205;28;20053;-45
2023/03/28 08:44:11;;;;;;;3.22;2.33;;;7.70;61.60;;;;;;5032291;28;20045;-44
2023/03/28 08:46:42;;;;;;;6.57;2.85;;;7.90;61.20;;;;;;5029709;28;20041;-44
2023/03/28 08:49:17;;;;;;;4.50;2.33;;;8.00;61.00;;;;;;5032663;28;20132;-45
2023/03/28 08:51:47;;;;;;;7.57;2.63;;;8.00;60.80;;;;;;5030054;28;20048;-44
2023/03/28 08:54:25;;;;;;;8.43;2.92;;;8.10;60.80;;;;;;5030293;28;20110;-45
2023/03/28 08:56:57;;;;;;;3.80;1.95;;;8.20;60.50;;;;;;5029426;28;20041;-46
2023/03/28 08:59:37;;;;;;;5.65;2.60;;;8.30;60.30;;;;;;5030190;28;20052;-44
2023/03/28 09:02:19;;;;;;;4.45;1.83;;;8.40;60.00;;;;;;5027221;28;20433;-44
2023/03/28 09:04:47;;;;;;;7.93;2.08;;;8.40;59.50;;;;;;5030127;28;20064;-43
2023/03/28 09:07:35;;;;;;;6.50;2.13;;;8.50;59.60;;;;;;5029623;28;20025;-43
2023/03/28 09:10:47;;;;;;;4.03;1.33;;;8.60;58.70;;;;;;5033858;28;20041;-43
2023/03/28 09:13:55;;;;;;;3.55;1.30;;;8.60;58.80;;;;;;4950071;28;20035;-44
2023/03/28 09:16:33;;;;;;;2.38;1.42;;;8.70;58.70;;;;;;4950062;28;20526;-43
2023/03/28 09:19:42;;;;;;;3.97;1.42;;;8.80;57.80;;;;;;5022061;28;20045;-44
2023/03/28 09:22:51;;;;;;;3.10;1.42;;;8.90;57.50;;;;;;5050786;28;20052;-45
2023/03/28 09:25:50;;;;;;;4.85;1.40;;;9.10;57.40;;;;;;5031080;28;20441;-45
2023/03/28 09:28:47;;;;;;;7.70;1.77;;;9.20;57.40;;;;;;5031977;28;20041;-43
2023/03/28 09:31:21;;;;;;;2.28;1.73;;;9.30;56.70;;;;;;5013694;28;20053;-45
2023/03/28 09:33:57;;;;;;;3.20;1.73;;;9.40;56.80;;;;;;5025910;28;20033;-45
2023/03/28 09:36:42;;;;;;;2.28;1.50;;;9.60;56.90;;;;;;5021614;28;20057;-44
2023/03/28 09:39:55;;;;;;;2.92;1.52;;;9.70;55.70;;;;;;5043422;28;21061;-48
2023/03/28 09:42:45;;;;;;;2.42;1.08;;;9.80;55.30;;;;;;4963709;28;20094;-43
2023/03/28 09:45:29;;;;;;;;;;;9.90;54.90;;;;;;5032139;28;20167;-44
2023/03/28 09:47:59;;;;;;;4.20;1.30;;;10.00;56.10;;;;;;5043534;28;19925;-46
2023/03/28 09:50:32;;;;;;;2.92;1.20;;;10.20;55.00;;;;;;5019659;28;20071;-43
2023/03/28 09:53:16;;;;;;;6.00;1.70;;;10.20;54.80;;;;;;5024000;28;20047;-46
2023/03/28 09:55:46;;;;;;;6.78;1.40;;;10.30;53.70;;;;;;5033608;28;20160;-43
2023/03/28 09:58:35;;;;;;;2.38;0.90;;;10.40;53.90;;;;;;5028387;28;20047;-45
2023/03/28 10:01:23;;;;;;;3.42;0.88;;;10.40;53.70;;;;;;5028853;28;20045;-48
2023/03/28 10:04:18;;;;;;;5.53;1.55;;;10.50;52.80;;;;;;5048756;28;20401;-43
2023/03/28 10:07:10;;;;;;;1.95;0.75;;;10.50;53.50;;;;;;5025799;28;20044;-43
2023/03/28 10:09:52;;;;;;;2.47;0.80;;;10.60;53.20;;;;;;5029983;28;20061;-43
2023/03/28 10:12:33;;;;;;;4.55;0.88;;;10.70;52.90;;;;;;5029205;28;20049;-44
2023/03/28 10:15:07;;;;;;;2.28;1.10;;;10.80;52.20;;;;;;5029659;28;20569;-43
2023/03/28 10:18:02;;;;;;;3.25;0.75;;;10.90;52.60;;;;;;5048057;28;20183;-47
2023/03/28 10:20:36;;;;;;;2.45;1.33;;;11.00;52.10;;;;;;5026769;28;20044;-44
2023/03/28 10:23:05;;;;;;;3.60;1.08;;;11.10;51.50;;;;;;5021556;28;20037;-46
2023/03/28 10:25:43;;;;;;;3.72;1.15;;;11.10;51.40;;;;;;5030425;28;20041;-44
2023/03/28 10:28:22;;;;;;;3.22;1.17;;;11.20;51.00;;;;;;5051155;28;20033;-46
2023/03/28 10:30:54;;;;;;;2.65;0.98;;;11.30;51.00;;;;;;5032001;28;20066;-45
2023/03/28 10:33:49;;;;;;;2.35;0.80;;;11.40;50.50;;;;;;5030014;28;20037;-45
2023/03/28 10:36:45;;;;;;;2.63;0.90;;;11.40;50.50;;;;;;5049690;28;20064;-44
2023/03/28 10:39:31;;;;;;;1.85;1.05;;;11.50;50.60;;;;;;5045619;23;20041;-48
2023/03/28 10:42:16;;;;;;;1.85;0.77;;;11.60;49.50;;;;;;5026327;28;20041;-44
2023/03/28 10:45:02;;;;;;;2.15;1.17;;;11.60;50.10;;;;;;5011681;28;20080;-45
2023/03/28 10:47:39;;;;;;;2.20;1.13;;;11.70;50.10;;;;;;5022002;28;20791;-48
2023/03/28 10:50:21;;;;;;;3.00;1.00;;;11.80;50.10;;;;;;5020276;28;20041;-45
2023/03/28 10:52:52;;;;;;;1.52;0.80;;;11.90;48.10;;;;;;5020813;28;20080;-48
2023/03/28 10:55:39;;;;;;;1.05;0.80;;;11.90;48.20;;;;;;5019270;28;20133;-47
2023/03/28 10:58:44;;;;;;;1.27;1.13;;;12.00;47.50;;;;;;5021790;28;20046;-49
2023/03/28 11:01:26;;;;;;;1.52;0.90;;;12.10;46.90;;;;;;5005223;28;20113;-45
2023/03/28 11:04:13;;;;;;;;;;;12.10;48.20;;;;;;5011233;28;20092;-47
2023/03/28 11:06:53;;;;;;;2.17;0.68;;;12.20;49.10;;;;;;4995900;28;19925;-48
2023/03/28 11:09:48;;;;;;;3.28;1.05;;;12.30;47.90;;;;;;5023865;28;20042;-46
2023/03/28 11:13:02;;;;;;;1.95;1.10;;;12.40;48.10;;;;;;5027762;28;20037;-46
2023/03/28 11:16:13;;;;;;;4.07;1.08;;;12.50;47.10;;;;;;5005010;28;20034;-48
2023/03/28 11:19:19;;;;;;;2.80;0.90;;;12.50;45.90;;;;;;5022873;28;20046;-47
2023/03/28 11:22:30;;;;;;;5.30;1.05;;;12.60;46.20;;;;;;5004520;28;20038;-47
2023/03/28 11:25:41;;;;;;;1.65;1.02;;;12.70;45.70;;;;;;5025272;28;20029;-49
2023/03/28 11:28:37;;;;;;;3.25;1.42;;;12.70;45.00;;;;;;5021686;28;20052;-48
2023/03/28 11:31:27;;;;;;;4.35;1.35;;;12.70;45.80;;;;;;4992997;28;20287;-50
2023/03/28 11:34:33;;;;;;;3.65;1.30;;;12.70;45.30;;;;;;5001356;28;20045;-49
2023/03/28 11:37:14;;;;;;;1.67;0.90;;;12.70;44.60;;;;;;5008870;28;20052;-49
2023/03/28 11:39:59;;;;;;;3.90;1.15;;;12.60;45.20;;;;;;5003271;28;20124;-47
2023/03/28 11:42:46;;;;;;;;;;;12.50;44.50;;;;;;5022424;28;20410;-50
2023/03/28 11:45:38;;;;;;;3.30;1.40;;;12.50;46.70;;;;;;5018959;28;20508;-48
2023/03/28 11:48:41;;;;;;;2.03;1.05;;;12.40;44.80;;;;;;5007490;28;20038;-49
2023/03/28 11:51:25;;;;;;;;;;;12.40;46.40;;;;;;5016837;28;20046;-46
2023/03/28 11:54:25;;;;;;;3.03;1.20;;;12.40;47.00;;;;;;5021600;28;20465;-48
2023/03/28 11:56:57;;;;;;;3.20;1.33;;;12.40;44.70;;;;;;5011930;28;20079;-49
2023/03/28 11:59:54;;;;;;;1.65;1.33;;;12.40;45.80;;;;;;5006675;28;20054;-46
2023/03/28 12:02:46;;;;;;;3.13;1.17;;;12.40;43.70;;;;;;5003750;28;20054;-49
2023/03/28 12:05:31;;;;;;;2.95;1.00;;;12.40;44.50;;;;;;5007670;28;20045;-48
2023/03/28 12:08:15;;;;;;;3.30;1.50;;;12.30;45.40;;;;;;5011599;28;20048;-47
2023/03/28 12:10:56;;;;;;;2.85;1.35;;;12.40;44.20;;;;;;5017475;28;20595;-49
2023/03/28 12:13:53;;;;;;;3.20;1.63;;;12.40;45.10;;;;;;5013675;28;20053;-50
2023/03/28 12:16:48;;;;;;;2.55;1.20;;;12.50;45.00;;;;;;5024743;28;20056;-45
2023/03/28 12:19:32;;;;;;;2.95;1.25;;;12.60;45.30;;;;;;5022327;28;20386;-46
2023/03/28 12:22:31;;;;;;;3.35;1.33;;;12.80;44.90;;;;;;5028393;28;20072;-50
2023/03/28 12:25:05;;;;;;;2.30;1.35;;;13.00;44.80;;;;;;5024882;28;20044;-48
2023/03/28 12:27:53;;;;;;;1.50;0.98;;;13.20;44.40;;;;;;5021457;28;20054;-50
2023/03/28 12:30:34;;;;;;;3.90;1.40;;;13.40;45.20;;;;;;5010080;28;20038;-51
2023/03/28 12:33:21;;;;;;;2.45;1.50;;;13.60;44.20;;;;;;5029347;28;20042;-51
2023/03/28 12:36:20;;;;;;;4.45;1.42;;;13.70;42.60;;;;;;5006896;28;20045;-47
2023/03/28 12:38:59;;;;;;;4.60;1.70;;;13.80;42.60;;;;;;5009689;28;20048;-47
2023/03/28 12:41:35;;;;;;;2.25;1.20;;;13.90;42.90;;;;;;5006368;28;20042;-48
2023/03/28 12:44:21;;;;;;;5.03;1.38;;;14.00;43.00;;;;;;5020593;28;20141;-47
2023/03/28 12:46:55;;;;;;;2.30;1.17;;;14.10;42.80;;;;;;5032949;28;20046;-49
2023/03/28 12:49:31;;;;;;;4.30;2.15;;;14.20;43.20;;;;;;5005899;28;20151;-50
2023/03/28 12:52:08;;;;;;;2.53;1.20;;;14.40;43.40;;;;;;5022237;28;20041;-45
2023/03/28 12:54:56;;;;;;;1.88;1.38;;;14.40;42.70;;;;;;5005960;28;20041;-47
2023/03/28 12:57:43;;;;;;;1.85;1.10;;;14.50;41.90;;;;;;5019592;28;20046;-48
2023/03/28 13:00:48;;;;;;;2.17;1.20;;;14.60;41.90;;;;;;5020935;28;20488;-50
2023/03/28 13:03:51;;;;;;;2.60;0.95;;;14.70;41.40;;;;;;4983503;28;20053;-49
2023/03/28 13:07:04;;;;;;;1.45;0.93;;;14.80;40.90;;;;;;5020156;28;20539;-48
2023/03/28 13:09:59;;;;;;;2.97;1.00;;;14.80;41.10;;;;;;5020873;28;20045;-47
2023/03/28 13:12:29;;;;;;;2.80;1.33;;;14.90;41.10;;;;;;5019742;28;20037;-46
2023/03/28 13:15:22;;;;;;;2.85;1.10;;;15.00;41.20;;;;;;5021200;28;20045;-46
2023/03/28 13:18:20;;;;;;;3.90;1.40;;;15.10;41.20;;;;;;5019070;28;20045;-49
2023/03/28 13:20:51;;;;;;;2.85;1.10;;;15.30;40.80;;;;;;5020914;28;20046;-49
2023/03/28 13:23:27;;;;;;;2.65;0.93;;;15.50;41.60;;;;;;5023429;28;20048;-50
2023/03/28 13:25:55;;;;;;;3.15;1.48;;;15.60;40.90;;;;;;5019415;28;20057;-49
2023/03/28 13:28:43;;;;;;;4.15;1.13;;;15.80;41.20;;;;;;5021229;28;20060;-45
2023/03/28 13:31:17;;;;;;;1.65;1.20;;;16.00;40.40;;;;;;5021129;28;20025;-50
2023/03/28 13:33:51;;;;;;;2.88;1.48;;;16.00;41.00;;;;;;5016302;28;20045;-47
2023/03/28 13:36:24;;;;;;;1.63;1.52;;;16.20;40.50;;;;;;5021380;28;20048;-50
2023/03/28 13:38:54;;;;;;;2.70;1.30;;;16.40;41.10;;;;;;5019748;28;20049;-49
2023/03/28 13:41:53;;;;;;;2.05;1.40;;;16.50;40.00;;;;;;5027309;28;20449;-48
2023/03/28 13:44:34;;;;;;;3.22;1.38;;;16.70;39.70;;;;;;5024337;28;20048;-47
2023/03/28 13:47:06;;;;;;;4.30;1.10;;;16.90;38.80;;;;;;5024101;28;20047;-48
2023/03/28 13:49:35;;;;;;;3.20;1.45;;;17.10;40.40;;;;;;5031084;28;20049;-49
2023/03/28 13:52:12;;;;;;;2.47;1.05;;;17.60;40.80;;;;;;5019518;28;20446;-47
2023/03/28 13:54:45;;;;;;;2.53;1.33;;;18.10;39.10;;;;;;5015994;28;20430;-48
2023/03/28 13:57:17;;;;;;;5.00;1.45;;;18.80;39.80;;;;;;5018480;28;20398;-49
2023/03/28 13:59:53;;;;;;;1.83;1.55;;;19.30;38.90;;;;;;5014079;28;20050;-51
2023/03/28 14:02:29;;;;;;;3.90;1.85;;;19.90;36.70;;;;;;5019728;28;20048;-49